Time;durP1;ratioP1;P1;durP2;ratioP2;P2;SDS_P1;SDS_P2;PMS_P1;PMS_P2;Temp;Humidity;BMP_temperature;BMP_pressure;BME280_temperature;BME280_humidity;BME280_pressure;Samples;Min_cycle;Max_cycle;Signal;HPM_P1;HPM_P2
2023/01/12 00:02:21;;;;;;;20.08;4.13;;;;;;;;;;5053915;28;20048;-81
2023/01/12 00:04:48;;;;;;;8.93;2.42;;;;;;;;;;5051479;28;20055;-81
2023/01/12 00:07:16;;;;;;;18.70;3.17;;;;;;;;;;5045200;28;20053;-81
2023/01/12 00:09:44;;;;;;;8.23;2.58;;;;;;;;;;5048368;28;20403;-81
2023/01/12 00:12:11;;;;;;;7.90;3.47;;;;;;;;;;5053334;28;20044;-81
2023/01/12 00:14:41;;;;;;;8.80;2.47;;;;;;;;;;5060066;28;21803;-81
2023/01/12 00:17:10;;;;;;;5.65;2.80;;;;;;;;;;5046109;28;20076;-81
2023/01/12 00:19:39;;;;;;;16.33;2.75;;;;;;;;;;5047384;28;20059;-81
2023/01/12 00:22:10;;;;;;;4.18;2.40;;;;;;;;;;5041418;28;20056;-81
2023/01/12 00:24:38;;;;;;;6.03;2.55;;;;;;;;;;5060545;28;20507;-81
2023/01/12 00:27:10;;;;;;;5.07;1.85;;;;;;;;;;5040870;28;20052;-81
2023/01/12 00:29:37;;;;;;;8.43;2.47;;;;;;;;;;5049013;28;20411;-81
2023/01/12 00:32:12;;;;;;;5.97;2.20;;;;;;;;;;5046463;28;20048;-81
2023/01/12 00:34:43;;;;;;;4.68;1.95;;;;;;;;;;5059356;28;22510;-81
2023/01/12 00:37:13;;;;;;;7.38;3.78;;;;;;;;;;5056715;28;20060;-81
2023/01/12 00:39:43;;;;;;;4.68;2.38;;;;;;;;;;5056681;28;20037;-81
2023/01/12 00:47:44;;;;;;;11.40;3.78;;;;;;;;;;5054611;28;20056;-81
2023/01/12 00:50:13;;;;;;;8.70;2.95;;;;;;;;;;5054703;28;20045;-81
2023/01/12 00:52:40;;;;;;;12.40;2.65;;;;;;;;;;5039306;28;20052;-82
2023/01/12 00:55:08;;;;;;;10.93;3.72;;;;;;;;;;5055127;28;20431;-81
2023/01/12 00:57:35;;;;;;;3.42;2.10;;;;;;;;;;5055809;28;20498;-81
2023/01/12 01:00:06;;;;;;;5.07;2.30;;;;;;;;;;5053619;28;20041;-82
2023/01/12 01:02:36;;;;;;;7.20;3.72;;;;;;;;;;5035925;28;20052;-81
2023/01/12 01:05:03;;;;;;;16.13;3.20;;;;;;;;;;5035922;28;20045;-81
2023/01/12 01:07:33;;;;;;;10.00;3.95;;;;;;;;;;5040354;28;20533;-81
2023/01/12 01:10:00;;;;;;;9.88;4.35;;;;;;;;;;5036635;28;20072;-81
2023/01/12 01:12:27;;;;;;;10.63;2.45;;;;;;;;;;5051071;28;20064;-81
2023/01/12 01:14:55;;;;;;;8.75;2.97;;;;;;;;;;5045479;28;20065;-81
2023/01/12 01:17:22;;;;;;;13.77;3.58;;;;;;;;;;5058942;28;20041;-81
2023/01/12 01:19:49;;;;;;;7.10;2.65;;;;;;;;;;5037899;28;20522;-81
2023/01/12 01:22:16;;;;;;;10.43;3.25;;;;;;;;;;5053778;28;20041;-81
2023/01/12 01:24:45;;;;;;;7.80;2.53;;;;;;;;;;5051473;28;20072;-81
2023/01/12 01:27:15;;;;;;;5.97;1.75;;;;;;;;;;5054779;28;20049;-81
2023/01/12 01:29:42;;;;;;;6.45;2.92;;;;;;;;;;5055354;28;20375;-81
2023/01/12 01:32:09;;;;;;;7.32;2.08;;;;;;;;;;5052947;28;20056;-81
2023/01/12 01:34:36;;;;;;;5.18;2.92;;;;;;;;;;5056492;28;20041;-81
2023/01/12 01:37:03;;;;;;;7.95;2.60;;;;;;;;;;5053279;28;20036;-81
2023/01/12 01:39:33;;;;;;;8.85;4.25;;;;;;;;;;5045430;28;20398;-81
2023/01/12 01:42:02;;;;;;;5.25;2.35;;;;;;;;;;5047029;28;20422;-81
2023/01/12 01:44:50;;;;;;;4.72;1.60;;;;;;;;;;5051060;28;20056;-82
2023/01/12 01:47:26;;;;;;;9.32;2.40;;;;;;;;;;5054694;28;21299;-81
2023/01/12 01:49:54;;;;;;;9.45;2.40;;;;;;;;;;5050540;28;20044;-81
2023/01/12 01:52:28;;;;;;;7.72;3.20;;;;;;;;;;5053177;28;20047;-81
2023/01/12 01:54:59;;;;;;;9.75;4.90;;;;;;;;;;5050209;28;20068;-81
2023/01/12 01:57:31;;;;;;;6.38;3.00;;;;;;;;;;5047386;28;20052;-81
2023/01/12 01:59:59;;;;;;;5.45;2.40;;;;;;;;;;5032711;28;20503;-81
2023/01/12 02:02:26;;;;;;;5.32;2.22;;;;;;;;;;5058872;28;20056;-81
2023/01/12 02:04:54;;;;;;;6.03;3.85;;;;;;;;;;5035560;28;20056;-81
2023/01/12 02:07:22;;;;;;;8.73;1.95;;;;;;;;;;5050285;28;20045;-81
2023/01/12 02:09:51;;;;;;;5.68;2.35;;;;;;;;;;5054027;28;20112;-81
2023/01/12 02:18:09;;;;;;;10.10;2.40;;;;;;;;;;5048554;28;20056;-81
2023/01/12 02:20:47;;;;;;;7.38;3.60;;;;;;;;;;5043982;28;20044;-81
2023/01/12 02:24:00;;;;;;;8.77;2.97;;;;;;;;;;5033755;28;20061;-81
2023/01/12 02:27:01;;;;;;;6.32;2.72;;;;;;;;;;5050151;28;20415;-81
2023/01/12 02:29:43;;;;;;;3.00;2.33;;;;;;;;;;5055680;28;20057;-81
2023/01/12 02:32:19;;;;;;;13.38;2.75;;;;;;;;;;5032989;28;20052;-81
2023/01/12 02:34:53;;;;;;;7.97;3.03;;;;;;;;;;5046425;28;20068;-81
2023/01/12 02:37:29;;;;;;;9.82;4.43;;;;;;;;;;5047273;28;20044;-81
2023/01/12 02:40:04;;;;;;;8.70;2.35;;;;;;;;;;5033374;28;20048;-81
2023/01/12 02:42:41;;;;;;;14.77;3.08;;;;;;;;;;5050479;28;20052;-81
2023/01/12 02:45:19;;;;;;;7.90;3.03;;;;;;;;;;5051938;28;20056;-81
2023/01/12 02:47:51;;;;;;;7.25;2.08;;;;;;;;;;5032280;28;20052;-81
2023/01/12 02:50:21;;;;;;;5.78;1.92;;;;;;;;;;5048912;28;20041;-81
2023/01/12 02:52:54;;;;;;;10.13;3.25;;;;;;;;;;5036012;28;20060;-81
2023/01/12 02:55:21;;;;;;;3.10;1.65;;;;;;;;;;5037653;28;20455;-81
2023/01/12 02:57:49;;;;;;;9.80;3.33;;;;;;;;;;5042690;28;20528;-81
2023/01/12 03:00:18;;;;;;;7.00;2.80;;;;;;;;;;5038344;28;20057;-81
2023/01/12 03:02:45;;;;;;;7.25;2.13;;;;;;;;;;5060909;28;20410;-81
2023/01/12 03:05:14;;;;;;;6.35;2.95;;;;;;;;;;5053274;28;20059;-81
2023/01/12 03:07:45;;;;;;;7.13;2.17;;;;;;;;;;5047773;28;20055;-81
2023/01/12 03:10:28;;;;;;;4.95;3.20;;;;;;;;;;5056438;28;20044;-81
2023/01/12 03:12:57;;;;;;;10.52;4.30;;;;;;;;;;5064976;28;20056;-81
2023/01/12 03:15:27;;;;;;;4.68;3.17;;;;;;;;;;5055494;28;20338;-81
2023/01/12 03:17:58;;;;;;;6.45;2.17;;;;;;;;;;5060972;28;20052;-81
2023/01/12 03:20:32;;;;;;;9.83;5.37;;;;;;;;;;5062853;28;20053;-81
2023/01/12 03:23:02;;;;;;;5.05;2.10;;;;;;;;;;5042189;28;20306;-81
2023/01/12 03:25:32;;;;;;;6.22;2.47;;;;;;;;;;5051497;28;20406;-81
2023/01/12 03:28:03;;;;;;;8.00;3.70;;;;;;;;;;5047824;28;20040;-81
2023/01/12 03:30:35;;;;;;;9.82;2.70;;;;;;;;;;5052179;28;20047;-81
2023/01/12 03:33:06;;;;;;;11.80;3.22;;;;;;;;;;5042048;28;20055;-81
2023/01/12 03:35:39;;;;;;;4.63;2.38;;;;;;;;;;5047769;28;20053;-81
2023/01/12 03:38:12;;;;;;;6.47;2.05;;;;;;;;;;5051424;28;20044;-81
2023/01/12 03:40:46;;;;;;;9.30;3.88;;;;;;;;;;5039795;28;20430;-81
2023/01/12 03:43:18;;;;;;;8.30;3.42;;;;;;;;;;5056843;28;20051;-81
2023/01/12 03:45:50;;;;;;;9.00;3.42;;;;;;;;;;5058024;28;20040;-81
2023/01/12 03:48:21;;;;;;;3.33;2.08;;;;;;;;;;5056112;28;20049;-81
2023/01/12 03:50:52;;;;;;;5.93;2.63;;;;;;;;;;5044836;28;20044;-81
2023/01/12 03:53:21;;;;;;;8.85;2.40;;;;;;;;;;5042426;28;20060;-81
2023/01/12 03:55:53;;;;;;;4.28;2.63;;;;;;;;;;5053494;28;20048;-81
2023/01/12 03:58:23;;;;;;;10.93;2.10;;;;;;;;;;5050266;28;20045;-81
2023/01/12 04:00:51;;;;;;;6.75;2.17;;;;;;;;;;5052700;28;20048;-82
2023/01/12 04:03:19;;;;;;;7.78;2.33;;;;;;;;;;5039423;28;20060;-82
2023/01/12 04:05:52;;;;;;;4.65;2.58;;;;;;;;;;5051178;28;20056;-81
2023/01/12 04:08:21;;;;;;;9.00;2.45;;;;;;;;;;5037217;28;20048;-81
2023/01/12 04:10:49;;;;;;;6.03;2.80;;;;;;;;;;5053815;28;20064;-81
2023/01/12 04:13:15;;;;;;;6.25;2.20;;;;;;;;;;5051690;28;20049;-81
2023/01/12 04:15:42;;;;;;;13.85;2.28;;;;;;;;;;5042391;28;20057;-81
2023/01/12 04:18:12;;;;;;;8.82;2.83;;;;;;;;;;5058502;28;20053;-81
2023/01/12 04:20:42;;;;;;;6.18;2.47;;;;;;;;;;5043538;28;20045;-81
2023/01/12 04:23:11;;;;;;;10.60;3.25;;;;;;;;;;5062241;28;20052;-81
2023/01/12 04:25:39;;;;;;;4.85;1.80;;;;;;;;;;5056206;28;20044;-81
2023/01/12 04:28:06;;;;;;;4.20;2.05;;;;;;;;;;5060278;28;20111;-81
2023/01/12 04:30:34;;;;;;;9.23;3.75;;;;;;;;;;5056935;28;20048;-81
2023/01/12 04:33:08;;;;;;;12.63;3.28;;;;;;;;;;5050564;28;20517;-81
2023/01/12 04:35:35;;;;;;;6.10;2.33;;;;;;;;;;5061803;23;20414;-87
2023/01/12 04:38:07;;;;;;;9.18;3.55;;;;;;;;;;5027359;28;20047;-88
2023/01/12 04:40:38;;;;;;;12.00;3.17;;;;;;;;;;5063761;28;20048;-87
2023/01/12 04:43:06;;;;;;;17.33;2.60;;;;;;;;;;5019964;28;20041;-87
2023/01/12 04:45:34;;;;;;;7.43;2.13;;;;;;;;;;5049360;28;20425;-87
2023/01/12 04:48:03;;;;;;;17.10;2.92;;;;;;;;;;5072810;28;20102;-88
2023/01/12 04:50:30;;;;;;;6.97;2.05;;;;;;;;;;5068093;28;20467;-87
2023/01/12 04:53:01;;;;;;;6.13;1.95;;;;;;;;;;5048513;28;20052;-87
2023/01/12 04:55:29;;;;;;;10.80;2.45;;;;;;;;;;5068430;28;20049;-87
2023/01/12 04:57:57;;;;;;;5.82;3.25;;;;;;;;;;5058174;28;20049;-87
2023/01/12 05:00:25;;;;;;;3.58;2.03;;;;;;;;;;5070683;28;20051;-87
2023/01/12 05:02:56;;;;;;;5.85;2.55;;;;;;;;;;5071654;28;20053;-89
2023/01/12 05:05:24;;;;;;;3.83;2.35;;;;;;;;;;5045834;28;20052;-88
2023/01/12 05:10:36;;;;;;;5.50;2.97;;;;;;;;;;5050778;28;20405;-88
2023/01/12 05:13:05;;;;;;;7.13;2.47;;;;;;;;;;5051845;28;20406;-88
2023/01/12 05:15:32;;;;;;;5.20;2.28;;;;;;;;;;5058284;28;20053;-89
2023/01/12 05:17:59;;;;;;;7.82;2.00;;;;;;;;;;5059337;28;20044;-89
2023/01/12 05:20:27;;;;;;;6.30;2.60;;;;;;;;;;5042760;28;20438;-89
2023/01/12 05:22:54;;;;;;;9.27;3.75;;;;;;;;;;5058600;28;20170;-88
2023/01/12 05:25:25;;;;;;;11.25;3.63;;;;;;;;;;5059533;28;20067;-88
2023/01/12 05:27:56;;;;;;;6.93;2.40;;;;;;;;;;5044001;28;20075;-88
2023/01/12 05:30:28;;;;;;;12.90;2.80;;;;;;;;;;5041377;28;20052;-89
2023/01/12 05:32:55;;;;;;;6.78;2.70;;;;;;;;;;5061184;28;20052;-89
2023/01/12 05:35:22;;;;;;;8.98;3.25;;;;;;;;;;5071722;28;20056;-89
2023/01/12 05:37:50;;;;;;;8.70;2.72;;;;;;;;;;5042510;28;20271;-87
2023/01/12 05:40:17;;;;;;;12.07;3.08;;;;;;;;;;5057467;28;20044;-87
2023/01/12 05:45:30;;;;;;;6.93;2.72;;;;;;;;;;5031072;28;20052;-86
2023/01/12 05:48:00;;;;;;;8.48;2.95;;;;;;;;;;5029094;28;20045;-86
2023/01/12 05:50:30;;;;;;;10.15;3.97;;;;;;;;;;5012206;28;20045;-87
2023/01/12 05:53:10;;;;;;;10.65;3.20;;;;;;;;;;5046474;28;20063;-87
2023/01/12 05:55:37;;;;;;;6.90;3.38;;;;;;;;;;5048190;28;20052;-87
2023/01/12 05:58:05;;;;;;;7.07;2.72;;;;;;;;;;5048457;28;20060;-87
2023/01/12 06:00:33;;;;;;;8.63;2.83;;;;;;;;;;5028831;28;20057;-87
2023/01/12 06:03:01;;;;;;;5.35;1.98;;;;;;;;;;5048791;28;20490;-87
2023/01/12 06:05:29;;;;;;;7.38;2.30;;;;;;;;;;5036176;28;20059;-86
2023/01/12 06:07:56;;;;;;;6.63;2.92;;;;;;;;;;5036410;28;20039;-88
2023/01/12 06:10:25;;;;;;;11.98;3.15;;;;;;;;;;5055407;28;20052;-87
2023/01/12 06:15:41;;;;;;;9.10;3.00;;;;;;;;;;5054422;28;20045;-87
2023/01/12 06:18:09;;;;;;;7.07;2.95;;;;;;;;;;5057789;28;20048;-87
2023/01/12 06:20:36;;;;;;;9.07;2.35;;;;;;;;;;5070920;28;20060;-88
2023/01/12 06:23:08;;;;;;;7.97;2.00;;;;;;;;;;5073800;28;20067;-87
2023/01/12 06:25:35;;;;;;;11.32;3.45;;;;;;;;;;5057003;28;20052;-88
2023/01/12 06:28:05;;;;;;;7.65;2.75;;;;;;;;;;5057330;28;20044;-88
2023/01/12 06:30:33;;;;;;;13.98;3.10;;;;;;;;;;5075621;28;20052;-87
2023/01/12 06:33:04;;;;;;;12.02;3.17;;;;;;;;;;5056676;28;20064;-87
2023/01/12 06:35:31;;;;;;;7.90;3.40;;;;;;;;;;5058749;28;20442;-87
2023/01/12 06:38:01;;;;;;;7.22;2.85;;;;;;;;;;5063681;28;20044;-86
2023/01/12 06:40:30;;;;;;;8.35;3.17;;;;;;;;;;5052939;28;20053;-87
2023/01/12 06:43:00;;;;;;;9.32;3.17;;;;;;;;;;5068837;28;20511;-87
2023/01/12 06:56:54;;;;;;;6.13;1.95;;;;;;;;;;5395477;22;20228;-87
2023/01/12 06:59:25;;;;;;;7.97;3.53;;;;;;;;;;5016100;28;20056;-90
2023/01/12 07:02:06;;;;;;;;;;;;;;;;;;;;;
2023/01/12 07:04:34;;;;;;;7.07;2.42;;;;;;;;;;5020116;28;20068;-88
2023/01/12 07:07:03;;;;;;;11.10;2.17;;;;;;;;;;5017553;28;20045;-86
2023/01/12 07:09:31;;;;;;;7.78;2.83;;;;;;;;;;5015782;28;20060;-87
2023/01/12 07:12:02;;;;;;;13.32;4.07;;;;;;;;;;5055088;28;20047;-88
2023/01/12 07:14:32;;;;;;;3.13;2.22;;;;;;;;;;5016348;28;20059;-87
2023/01/12 07:17:00;;;;;;;5.22;2.60;;;;;;;;;;5017204;28;20434;-89
2023/01/12 07:19:27;;;;;;;6.93;2.03;;;;;;;;;;5008642;28;20049;-87
2023/01/12 07:22:01;;;;;;;9.27;3.35;;;;;;;;;;5053422;28;20422;-87
2023/01/12 07:24:37;;;;;;;9.75;3.08;;;;;;;;;;5017433;28;20041;-89
2023/01/12 07:27:06;;;;;;;10.25;3.25;;;;;;;;;;5020726;28;20057;-90
2023/01/12 07:29:33;;;;;;;6.93;1.80;;;;;;;;;;5035128;28;20044;-89
2023/01/12 07:32:05;;;;;;;7.97;2.92;;;;;;;;;;5056503;28;20056;-87
2023/01/12 07:34:34;;;;;;;3.83;2.17;;;;;;;;;;5020469;28;20049;-87
2023/01/12 07:37:06;;;;;;;6.88;2.17;;;;;;;;;;5013592;28;20041;-88
2023/01/12 07:39:34;;;;;;;8.77;2.13;;;;;;;;;;5017623;28;20048;-87
2023/01/12 07:44:51;;;;;;;7.10;3.47;;;;;;;;;;5020947;28;20507;-87
2023/01/12 07:47:20;;;;;;;9.88;2.00;;;;;;;;;;5021529;28;20053;-88
2023/01/12 07:49:55;;;;;;;7.20;1.73;;;;;;;;;;5017550;28;20449;-87
2023/01/12 07:52:24;;;;;;;3.03;1.58;;;;;;;;;;5016083;28;20049;-88
2023/01/12 07:54:57;;;;;;;10.25;2.15;;;;;;;;;;5021264;28;20037;-87
2023/01/12 07:57:36;;;;;;;4.95;2.47;;;;;;;;;;5049260;28;20053;-87
2023/01/12 08:00:09;;;;;;;5.53;3.13;;;;;;;;;;5017163;28;20053;-88
2023/01/12 08:02:48;;;;;;;3.88;1.58;;;;;;;;;;5032792;28;20046;-88
2023/01/12 08:05:18;;;;;;;8.30;3.95;;;;;;;;;;5017842;28;20053;-89
2023/01/12 08:07:48;;;;;;;11.18;3.63;;;;;;;;;;5021016;28;20064;-89
2023/01/12 08:10:16;;;;;;;5.35;1.60;;;;;;;;;;5016817;28;20049;-88
2023/01/12 08:12:44;;;;;;;4.28;1.67;;;;;;;;;;5011444;28;20037;-87
2023/01/12 08:15:13;;;;;;;5.53;3.00;;;;;;;;;;5015946;28;20059;-88
2023/01/12 08:17:45;;;;;;;4.00;1.58;;;;;;;;;;5015019;28;20056;-89
2023/01/12 08:20:19;;;;;;;5.43;1.58;;;;;;;;;;5013774;28;20048;-88
2023/01/12 08:22:52;;;;;;;8.70;2.22;;;;;;;;;;5018424;28;20049;-88
2023/01/12 08:25:22;;;;;;;11.70;3.65;;;;;;;;;;5025382;28;20049;-89
2023/01/12 08:27:52;;;;;;;9.25;2.15;;;;;;;;;;5020303;28;20061;-90
2023/01/12 08:30:24;;;;;;;9.20;3.25;;;;;;;;;;5030616;28;20045;-89
2023/01/12 08:32:58;;;;;;;9.60;2.40;;;;;;;;;;4999670;28;20046;-88
2023/01/12 08:35:30;;;;;;;2.38;1.80;;;;;;;;;;5023026;28;20383;-88
2023/01/12 08:38:05;;;;;;;6.90;2.10;;;;;;;;;;5021705;28;20057;-89
2023/01/12 08:46:06;;;;;;;4.50;1.92;;;;;;;;;;4999875;28;20629;-89
2023/01/12 08:48:48;;;;;;;4.35;2.15;;;;;;;;;;5015009;28;20053;-89
2023/01/12 08:51:20;;;;;;;7.45;2.80;;;;;;;;;;5018800;28;20041;-89
2023/01/12 08:53:50;;;;;;;8.52;4.03;;;;;;;;;;5032761;28;20056;-88
2023/01/12 08:56:18;;;;;;;7.63;1.80;;;;;;;;;;5015548;28;20514;-90
2023/01/12 08:58:46;;;;;;;4.82;2.42;;;;;;;;;;5015962;28;20049;-87
2023/01/12 09:01:18;;;;;;;5.07;2.85;;;;;;;;;;5013767;28;20049;-87
2023/01/12 09:03:49;;;;;;;7.53;3.50;;;;;;;;;;5031044;28;20617;-86
2023/01/12 09:06:23;;;;;;;8.10;1.80;;;;;;;;;;5033563;28;20068;-88
2023/01/12 09:08:53;;;;;;;5.00;2.58;;;;;;;;;;5014756;28;20049;-87
2023/01/12 09:11:24;;;;;;;4.47;1.83;;;;;;;;;;5017394;28;20053;-89
2023/01/12 09:13:57;;;;;;;4.63;1.35;;;;;;;;;;5035777;28;20585;-89
2023/01/12 09:16:33;;;;;;;4.88;2.42;;;;;;;;;;5017446;28;20045;-88
2023/01/12 09:19:01;;;;;;;3.30;1.33;;;;;;;;;;5018943;28;20041;-90
2023/01/12 09:21:31;;;;;;;9.60;1.80;;;;;;;;;;5013553;28;21607;-88
2023/01/12 09:24:06;;;;;;;2.85;1.65;;;;;;;;;;5028693;28;20506;-90
2023/01/12 09:26:38;;;;;;;8.32;2.55;;;;;;;;;;5022045;28;20068;-87
2023/01/12 09:29:08;;;;;;;6.20;1.80;;;;;;;;;;5012602;28;20429;-88
2023/01/12 09:31:41;;;;;;;8.63;2.17;;;;;;;;;;5029996;28;20048;-87
2023/01/12 09:34:16;;;;;;;2.90;2.20;;;;;;;;;;5025992;28;20052;-89
2023/01/12 09:36:55;;;;;;;12.32;2.50;;;;;;;;;;5017032;28;20053;-89
2023/01/12 09:39:28;;;;;;;9.13;2.28;;;;;;;;;;5020027;28;20045;-89
2023/01/12 09:48:00;;;;;;;6.55;2.60;;;;;;;;;;5024566;28;20056;-91
2023/01/12 09:50:32;;;;;;;4.57;2.65;;;;;;;;;;5031516;28;20064;-90
2023/01/12 09:53:02;;;;;;;5.38;2.33;;;;;;;;;;5033271;28;20044;-88
2023/01/12 09:55:41;;;;;;;18.88;3.25;;;;;;;;;;5010343;28;20053;-89
2023/01/12 09:58:27;;;;;;;5.60;2.03;;;;;;;;;;5020189;28;20425;-86
2023/01/12 10:00:59;;;;;;;7.22;2.67;;;;;;;;;;5010107;28;20041;-90
2023/01/12 10:03:34;;;;;;;7.50;2.15;;;;;;;;;;5036432;28;20049;-89
2023/01/12 10:06:07;;;;;;;4.82;2.13;;;;;;;;;;5038694;28;20571;-89
2023/01/12 10:08:40;;;;;;;5.22;1.77;;;;;;;;;;5024744;28;20075;-88
2023/01/12 10:11:14;;;;;;;4.07;1.95;;;;;;;;;;5019529;28;20049;-88
2023/01/12 10:14:18;;;;;;;5.80;1.73;;;;;;;;;;5014166;28;20041;-89
2023/01/12 10:16:53;;;;;;;8.20;2.58;;;;;;;;;;5018809;28;20041;-89
2023/01/12 10:19:26;;;;;;;15.23;3.88;;;;;;;;;;5017538;28;20067;-88
2023/01/12 10:21:57;;;;;;;5.45;1.80;;;;;;;;;;5015877;28;20052;-89
2023/01/12 10:24:27;;;;;;;4.47;1.90;;;;;;;;;;5009612;28;20069;-88
2023/01/12 10:27:02;;;;;;;7.13;2.80;;;;;;;;;;5016442;28;20041;-87
2023/01/12 10:29:32;;;;;;;8.15;2.85;;;;;;;;;;5011650;28;20072;-88
2023/01/12 10:32:03;;;;;;;9.32;4.35;;;;;;;;;;5016446;28;20055;-88
2023/01/12 10:47:22;;;;;;;5.72;2.33;;;;;;;;;;5097332;23;20040;-93
2023/01/12 10:50:14;;;;;;;11.82;3.63;;;;;;;;;;5069831;28;20055;-94
2023/01/12 10:52:46;;;;;;;3.70;1.80;;;;;;;;;;5063163;28;20055;-91
2023/01/12 10:55:19;;;;;;;10.30;2.08;;;;;;;;;;5037713;28;20052;-92
2023/01/12 10:57:47;;;;;;;3.15;1.67;;;;;;;;;;5044839;28;20063;-92
2023/01/12 11:00:20;;;;;;;4.30;2.05;;;;;;;;;;5038072;28;20049;-92
2023/01/12 11:02:55;;;;;;;4.13;1.17;;;;;;;;;;5033148;28;20052;-92
2023/01/12 11:05:33;;;;;;;8.73;2.33;;;;;;;;;;5034464;28;20525;-91
2023/01/12 11:08:01;;;;;;;8.70;2.95;;;;;;;;;;5052625;28;20066;-92
2023/01/12 11:10:31;;;;;;;3.05;2.20;;;;;;;;;;5045711;28;20056;-93
2023/01/12 11:13:03;;;;;;;4.85;2.53;;;;;;;;;;5050086;28;20072;-93
2023/01/12 11:15:37;;;;;;;3.65;1.95;;;;;;;;;;5056931;28;20068;-94
2023/01/12 11:18:28;;;;;;;2.35;1.30;;;;;;;;;;5051015;28;20057;-91
2023/01/12 11:21:00;;;;;;;4.72;1.70;;;;;;;;;;5038485;28;20053;-92
2023/01/12 11:23:32;;;;;;;5.80;2.75;;;;;;;;;;5041481;28;20071;-92
2023/01/12 11:26:01;;;;;;;5.22;1.55;;;;;;;;;;5035793;28;20044;-92
2023/01/12 11:28:32;;;;;;;2.90;1.20;;;;;;;;;;5039447;28;20057;-91
2023/01/12 11:34:05;;;;;;;2.97;1.83;;;;;;;;;;5052432;28;20049;-92
2023/01/12 11:36:38;;;;;;;4.40;1.60;;;;;;;;;;5054693;28;20047;-92
2023/01/12 11:39:10;;;;;;;6.97;1.92;;;;;;;;;;5065937;28;20063;-93
2023/01/12 11:41:40;;;;;;;6.82;1.42;;;;;;;;;;5040206;28;20053;-93
2023/01/12 11:44:14;;;;;;;2.38;1.20;;;;;;;;;;5029478;28;20099;-92
2023/01/12 11:46:45;;;;;;;4.50;2.00;;;;;;;;;;5038572;28;20509;-92
2023/01/12 11:49:31;;;;;;;8.18;2.35;;;;;;;;;;5065776;28;20428;-93
2023/01/12 11:52:01;;;;;;;5.28;1.92;;;;;;;;;;5037927;28;20418;-93
2023/01/12 11:54:32;;;;;;;6.13;1.60;;;;;;;;;;5052054;28;20049;-92
2023/01/12 11:57:31;;;;;;;2.83;1.40;;;;;;;;;;5048578;28;20060;-92
2023/01/12 12:00:29;;;;;;;4.60;1.35;;;;;;;;;;5028788;28;20433;-92
2023/01/12 12:03:11;;;;;;;4.20;1.20;;;;;;;;;;5051186;28;20056;-93
2023/01/12 12:05:52;;;;;;;5.38;1.88;;;;;;;;;;5047810;28;20055;-93
2023/01/12 12:08:31;;;;;;;3.33;1.50;;;;;;;;;;5043841;28;20053;-92
2023/01/12 12:11:01;;;;;;;5.03;1.20;;;;;;;;;;5027589;28;20064;-93
2023/01/12 12:13:33;;;;;;;2.58;1.63;;;;;;;;;;5044092;28;20055;-93
2023/01/12 12:16:14;;;;;;;3.17;1.58;;;;;;;;;;5055883;28;20071;-94
2023/01/12 12:19:06;;;;;;;3.67;0.90;;;;;;;;;;5040363;28;20072;-93
2023/01/12 12:21:46;;;;;;;6.20;1.30;;;;;;;;;;5044923;28;20127;-92
2023/01/12 12:24:30;;;;;;;5.15;1.20;;;;;;;;;;5039685;28;20044;-93
2023/01/12 12:27:05;;;;;;;1.65;0.90;;;;;;;;;;5034604;28;20068;-92
2023/01/12 12:29:52;;;;;;;1.65;0.90;;;;;;;;;;5039019;28;20052;-93
2023/01/12 12:32:27;;;;;;;1.85;1.20;;;;;;;;;;5059819;28;20055;-96
2023/01/12 12:35:08;;;;;;;1.77;1.25;;;;;;;;;;5049326;28;20055;-92
2023/01/12 12:37:57;;;;;;;4.50;1.20;;;;;;;;;;5042287;28;20059;-95
2023/01/12 12:45:15;;;;;;;1.35;0.70;;;;;;;;;;5045154;28;20698;-93
2023/01/12 12:46:30;;;;;;;5.10;1.55;;;;;;;;;;5045749;28;20056;-93
2023/01/12 12:49:01;;;;;;;2.45;1.10;;;;;;;;;;5035269;28;20053;-93
2023/01/12 12:51:32;;;;;;;1.83;0.60;;;;;;;;;;5045505;28;20053;-94
2023/01/12 12:54:09;;;;;;;2.50;1.42;;;;;;;;;;5053255;28;20059;-92
2023/01/12 12:56:39;;;;;;;1.77;0.90;;;;;;;;;;5056478;28;20078;-92
2023/01/12 12:59:08;;;;;;;2.38;1.02;;;;;;;;;;5047704;28;20056;-92
2023/01/12 13:01:41;;;;;;;1.17;1.00;;;;;;;;;;5046123;28;20053;-92
2023/01/12 13:04:11;;;;;;;1.95;1.67;;;;;;;;;;5042250;28;20056;-93
2023/01/12 13:09:52;;;;;;;1.98;1.30;;;;;;;;;;5038644;28;20061;-92
2023/01/12 13:12:35;;;;;;;1.40;0.80;;;;;;;;;;5044334;28;20053;-93
2023/01/12 13:15:22;;;;;;;2.30;1.37;;;;;;;;;;5055212;28;20418;-91
2023/01/12 13:17:54;;;;;;;5.78;1.25;;;;;;;;;;5052408;28;20049;-92
2023/01/12 13:20:58;;;;;;;4.78;1.20;;;;;;;;;;5051378;28;20052;-92
2023/01/12 13:23:51;;;;;;;2.20;1.00;;;;;;;;;;5038119;28;20057;-93
2023/01/12 13:26:51;;;;;;;0.95;0.82;;;;;;;;;;5022627;28;20055;-93
2023/01/12 13:29:41;;;;;;;0.98;0.80;;;;;;;;;;5037906;28;20202;-92
2023/01/12 13:32:51;;;;;;;2.50;1.00;;;;;;;;;;5051624;28;20440;-92
2023/01/12 13:35:43;;;;;;;2.63;1.33;;;;;;;;;;5034015;28;20053;-93
2023/01/12 13:38:15;;;;;;;1.77;0.80;;;;;;;;;;5049806;28;20056;-92
2023/01/12 13:40:43;;;;;;;3.58;0.88;;;;;;;;;;5046749;28;20075;-92
2023/01/12 13:43:21;;;;;;;3.65;2.00;;;;;;;;;;5042009;28;20065;-92
2023/01/12 13:45:53;;;;;;;3.90;1.63;;;;;;;;;;5048593;28;20048;-93
2023/01/12 13:48:21;;;;;;;2.65;1.55;;;;;;;;;;5040005;28;20124;-92
2023/01/12 13:50:52;;;;;;;4.07;1.45;;;;;;;;;;5040028;28;20047;-92
2023/01/12 13:53:25;;;;;;;1.85;0.90;;;;;;;;;;5052063;28;20048;-93
2023/01/12 13:55:57;;;;;;;3.75;1.05;;;;;;;;;;5043425;28;20056;-92
2023/01/12 13:58:27;;;;;;;2.38;1.23;;;;;;;;;;5042230;28;20730;-92
2023/01/12 14:00:59;;;;;;;4.45;1.33;;;;;;;;;;5052416;28;20060;-93
2023/01/12 14:03:58;;;;;;;4.47;0.98;;;;;;;;;;5049894;28;20049;-94
2023/01/12 14:06:31;;;;;;;1.35;0.90;;;;;;;;;;5036859;28;20052;-93
2023/01/12 14:09:07;;;;;;;1.52;0.70;;;;;;;;;;5063112;28;20052;-92
2023/01/12 14:11:52;;;;;;;1.85;1.00;;;;;;;;;;5046354;28;20052;-93
2023/01/12 14:17:56;;;;;;;3.80;1.00;;;;;;;;;;5007250;28;20053;-92
2023/01/12 14:20:29;;;;;;;3.58;1.10;;;;;;;;;;5040030;28;20045;-92
2023/01/12 14:23:28;;;;;;;1.95;0.88;;;;;;;;;;5026180;28;20052;-93
2023/01/12 14:26:06;;;;;;;1.50;0.70;;;;;;;;;;5037773;28;20052;-92
2023/01/12 14:28:34;;;;;;;3.28;1.90;;;;;;;;;;5036874;28;20061;-90
2023/01/12 14:31:05;;;;;;;1.58;0.80;;;;;;;;;;5037319;28;20128;-93
2023/01/12 14:33:34;;;;;;;2.42;1.48;;;;;;;;;;5034640;28;20041;-93
2023/01/12 14:36:04;;;;;;;4.57;1.08;;;;;;;;;;5051114;28;20505;-93
2023/01/12 14:38:33;;;;;;;1.25;0.95;;;;;;;;;;5050055;28;20521;-93
2023/01/12 14:46:37;;;;;;;3.85;1.00;;;;;;;;;;5047773;28;20068;-92
2023/01/12 14:49:21;;;;;;;3.10;1.25;;;;;;;;;;5036667;28;20060;-92
2023/01/12 14:51:55;;;;;;;3.00;1.35;;;;;;;;;;5059358;28;20047;-91
2023/01/12 14:54:26;;;;;;;1.85;1.08;;;;;;;;;;5046369;28;20521;-91
2023/01/12 14:56:58;;;;;;;2.40;1.00;;;;;;;;;;5065613;28;20052;-93
2023/01/12 14:59:32;;;;;;;3.45;1.55;;;;;;;;;;5041227;28;20048;-92
2023/01/12 15:02:20;;;;;;;1.95;1.25;;;;;;;;;;5021529;28;20120;-92
2023/01/12 15:04:55;;;;;;;3.60;0.90;;;;;;;;;;5068297;28;20053;-92
2023/01/12 15:07:23;;;;;;;2.35;0.90;;;;;;;;;;5068768;28;20063;-92
2023/01/12 15:09:55;;;;;;;2.75;1.10;;;;;;;;;;5052352;28;20041;-92
2023/01/12 15:12:43;;;;;;;1.63;1.30;;;;;;;;;;5045448;28;20049;-92
2023/01/12 15:15:20;;;;;;;1.60;1.00;;;;;;;;;;5037242;28;20057;-92
2023/01/12 15:26:22;;;;;;;2.55;1.85;;;;;;;;;;5035262;28;20529;-92
2023/01/12 15:28:51;;;;;;;2.20;1.20;;;;;;;;;;5044996;28;20045;-93
2023/01/12 15:31:26;;;;;;;1.77;0.75;;;;;;;;;;5037661;28;20409;-92
2023/01/12 15:33:56;;;;;;;1.83;1.05;;;;;;;;;;5042326;28;20057;-91
2023/01/12 15:36:26;;;;;;;1.08;0.68;;;;;;;;;;5041184;28;20056;-93
2023/01/12 15:38:57;;;;;;;1.95;0.90;;;;;;;;;;5032849;28;20056;-92
2023/01/12 15:44:13;;;;;;;1.10;0.80;;;;;;;;;;5005832;28;20311;-92
2023/01/12 15:46:45;;;;;;;4.30;1.10;;;;;;;;;;5049658;28;20049;-92
2023/01/12 15:49:17;;;;;;;0.80;0.80;;;;;;;;;;5047656;28;20051;-92
2023/01/12 15:51:49;;;;;;;5.03;1.30;;;;;;;;;;5034802;28;20175;-92
2023/01/12 15:54:17;;;;;;;3.15;1.48;;;;;;;;;;5035957;28;20068;-91
2023/01/12 15:56:47;;;;;;;3.40;1.10;;;;;;;;;;5036291;28;20053;-91
2023/01/12 15:59:15;;;;;;;4.05;1.10;;;;;;;;;;5043259;28;20052;-91
2023/01/12 16:01:45;;;;;;;2.72;1.23;;;;;;;;;;5047650;28;20048;-91
2023/01/12 16:04:17;;;;;;;2.92;0.80;;;;;;;;;;5034968;28;20060;-91
2023/01/12 16:06:44;;;;;;;1.98;1.42;;;;;;;;;;5036759;28;20056;-91
2023/01/12 16:09:14;;;;;;;0.77;0.65;;;;;;;;;;5047091;28;20424;-92
2023/01/12 16:14:26;;;;;;;1.27;0.90;;;;;;;;;;5042443;28;20135;-93
2023/01/12 16:16:57;;;;;;;2.15;1.55;;;;;;;;;;5031379;28;20045;-91
2023/01/12 16:19:39;;;;;;;4.07;0.88;;;;;;;;;;5036355;28;20061;-92
2023/01/12 16:22:09;;;;;;;3.67;0.93;;;;;;;;;;5042408;28;20136;-91
2023/01/12 16:24:37;;;;;;;3.08;1.10;;;;;;;;;;5040034;28;20053;-92
2023/01/12 16:27:05;;;;;;;1.52;0.82;;;;;;;;;;5051011;28;20053;-92
2023/01/12 16:29:33;;;;;;;4.60;1.67;;;;;;;;;;5034851;28;20059;-92
2023/01/12 16:32:05;;;;;;;2.08;1.25;;;;;;;;;;5075796;28;20045;-92
2023/01/12 16:34:35;;;;;;;5.20;1.00;;;;;;;;;;5051693;28;20832;-92
2023/01/12 16:54:43;;;;;;;2.42;1.23;;;;;;;;;;5066576;28;20052;-91
2023/01/12 16:57:32;;;;;;;2.17;1.42;;;;;;;;;;5040291;28;20056;-91
2023/01/12 17:00:00;;;;;;;1.52;1.40;;;;;;;;;;5042626;28;20052;-91
2023/01/12 17:02:30;;;;;;;3.17;1.10;;;;;;;;;;5042134;28;20052;-91
2023/01/12 17:04:57;;;;;;;1.50;0.90;;;;;;;;;;5042382;28;20048;-92